createdAt,value
2023-03-13T00:01:35.073Z,97397.72
2023-03-13T00:04:02.905Z,97397.72
2023-03-13T00:06:32.724Z,97378.16
2023-03-13T00:09:01.780Z,97363.94
2023-03-13T00:11:29.463Z,97358.03
2023-03-13T00:13:57.239Z,97364.28
2023-03-13T00:16:25.009Z,97352.69
2023-03-13T00:18:53.655Z,97349.25
2023-03-13T00:21:22.412Z,97334.50
2023-03-13T00:23:50.236Z,97331.25
2023-03-13T00:26:20.280Z,97315.50
2023-03-13T00:28:48.630Z,97311.59
2023-03-13T00:31:17.378Z,97318.47
2023-03-13T00:33:45.829Z,97301.59
2023-03-13T00:36:14.648Z,97298.16
2023-03-13T00:38:42.708Z,97283.28
2023-03-13T00:41:12.335Z,97281.47
2023-03-13T00:43:41.816Z,97271.00
2023-03-13T00:46:09.587Z,97263.63
2023-03-13T00:48:37.360Z,97257.38
2023-03-13T00:51:05.494Z,97252.34
2023-03-13T00:53:33.240Z,97257.22
2023-03-13T00:56:01.874Z,97265.75
2023-03-13T00:58:30.575Z,97264.13
2023-03-13T01:01:08.884Z,97253.31
2023-03-13T01:03:36.855Z,97261.81
2023-03-13T01:06:05.550Z,97247.06
2023-03-13T01:08:33.542Z,97242.50
2023-03-13T01:11:02.632Z,97243.81
2023-03-13T01:13:30.747Z,97234.31
2023-03-13T01:16:02.787Z,97234.16
2023-03-13T01:18:30.553Z,97234.97
2023-03-13T01:20:58.263Z,97226.97
2023-03-13T01:23:26.549Z,97233.34
2023-03-13T01:25:55.125Z,97229.41
2023-03-13T01:28:22.910Z,97230.72
2023-03-13T01:30:50.748Z,97231.38
2023-03-13T01:33:19.932Z,97218.47
2023-03-13T01:35:48.465Z,97221.88
2023-03-13T01:38:16.362Z,97215.69
2023-03-13T01:40:45.632Z,97212.38
2023-03-13T01:43:26.405Z,97212.34
2023-03-13T01:46:14.591Z,97195.53
2023-03-13T01:48:52.992Z,97189.94
2023-03-13T01:51:23.421Z,97187.31
2023-03-13T01:53:53.517Z,97187.81
2023-03-13T01:56:23.065Z,97174.38
2023-03-13T01:58:50.874Z,97174.88
2023-03-13T02:01:18.776Z,97171.09
2023-03-13T02:03:46.488Z,97158.19
2023-03-13T02:06:15.541Z,97161.28
2023-03-13T02:08:45.179Z,97149.53
2023-03-13T02:11:18.285Z,97158.94
2023-03-13T02:13:46.044Z,97144.41
2023-03-13T02:16:13.891Z,97130.03
2023-03-13T02:18:41.586Z,97124.59
2023-03-13T02:21:12.033Z,97119.69
2023-03-13T02:23:43.870Z,97113.13
2023-03-13T02:26:13.021Z,97109.66
2023-03-13T02:28:40.856Z,97103.13
2023-03-13T02:31:12.664Z,97100.72
2023-03-13T02:33:41.435Z,97103.31
2023-03-13T02:36:11.753Z,97095.78
2023-03-13T02:38:41.601Z,97094.28
2023-03-13T02:41:09.658Z,97084.63
2023-03-13T02:43:38.965Z,97082.28
2023-03-13T02:46:09.491Z,97069.56
2023-03-13T02:48:42.117Z,97072.13
2023-03-13T02:51:13.523Z,97060.84
2023-03-13T02:53:41.356Z,97067.06
2023-03-13T02:56:09.218Z,97050.47
2023-03-13T02:58:49.159Z,97040.91
2023-03-13T03:01:18.402Z,97047.47
2023-03-13T03:03:46.983Z,97044.59
2023-03-13T03:06:14.750Z,97036.41
2023-03-13T03:08:43.939Z,97050.91
2023-03-13T03:11:13.202Z,97041.94
2023-03-13T03:13:43.489Z,97044.63
2023-03-13T03:16:12.638Z,97031.38
2023-03-13T03:18:40.433Z,97037.59
2023-03-13T03:21:08.281Z,97034.81
2023-03-13T03:23:39.770Z,97037.91
2023-03-13T03:26:08.891Z,97033.66
2023-03-13T03:28:37.511Z,97019.69
2023-03-13T03:31:12.072Z,97015.28
2023-03-13T03:33:40.784Z,97000.81
2023-03-13T03:36:13.690Z,96996.50
2023-03-13T03:38:42.071Z,96983.34
2023-03-13T03:41:11.915Z,96980.47
2023-03-13T03:43:39.626Z,96970.97
2023-03-13T03:46:09.006Z,96960.44
2023-03-13T03:48:38.654Z,96951.69
2023-03-13T03:51:08.417Z,96937.34
2023-03-13T03:53:40.444Z,96939.72
2023-03-13T03:56:08.687Z,96926.13
2023-03-13T03:58:40.727Z,96918.72
2023-03-13T04:01:23.717Z,96917.84
2023-03-13T04:03:52.850Z,96907.44
2023-03-13T04:06:20.613Z,96900.00
2023-03-13T04:08:49.016Z,96897.94
2023-03-13T04:11:20.239Z,96885.97
2023-03-13T04:13:51.548Z,96875.75
2023-03-13T04:16:19.359Z,96868.59
2023-03-13T04:18:48.610Z,96860.38
2023-03-13T04:21:19.570Z,96861.28
2023-03-13T04:24:01.606Z,96845.72
2023-03-13T04:26:30.192Z,96826.44
2023-03-13T04:28:59.934Z,96818.66
2023-03-13T04:31:41.483Z,96805.38
2023-03-13T04:34:24.337Z,96789.25
2023-03-13T04:37:11.831Z,96778.59
2023-03-13T04:40:05.850Z,96776.06
2023-03-13T04:42:51.720Z,96764.31
2023-03-13T04:45:40.612Z,96754.13
2023-03-13T04:48:28.630Z,96755.25
2023-03-13T04:51:03.283Z,96742.03
2023-03-13T04:53:51.571Z,96736.69
2023-03-13T04:56:43.609Z,96716.16
2023-03-13T04:59:30.732Z,96692.19
2023-03-13T05:02:01.264Z,96689.94
2023-03-13T05:04:41.777Z,96674.78
2023-03-13T05:07:25.687Z,96683.28
2023-03-13T05:10:17.889Z,96671.19
2023-03-13T05:13:11.944Z,96651.81
2023-03-13T05:15:51.126Z,96656.44
2023-03-13T05:18:25.153Z,96639.00
2023-03-13T05:21:08.813Z,96645.16
2023-03-13T05:23:59.705Z,96643.31
2023-03-13T05:27:06.919Z,96638.25
2023-03-13T05:29:55.365Z,96646.50
2023-03-13T05:32:58.210Z,96634.50
2023-03-13T05:35:42.209Z,96647.94
2023-03-13T05:38:30.270Z,96638.97
2023-03-13T05:41:10.202Z,96644.31
2023-03-13T05:43:57.667Z,96642.44
2023-03-13T05:46:34.316Z,96642.22
2023-03-13T05:49:29.568Z,96645.78
2023-03-13T05:52:06.703Z,96630.16
2023-03-13T05:55:03.446Z,96631.66
2023-03-13T05:57:46.663Z,96636.47
2023-03-13T06:00:28.930Z,96633.22
2023-03-13T06:03:16.762Z,96617.34
2023-03-13T06:05:46.951Z,96627.41
2023-03-13T06:08:27.897Z,96632.22
2023-03-13T06:10:56.143Z,96640.25
2023-03-13T06:13:24.014Z,96636.94
2023-03-13T06:15:56.657Z,96657.03
2023-03-13T06:18:41.067Z,96663.28
2023-03-13T06:21:08.787Z,96666.41
2023-03-13T06:23:36.593Z,96679.63
2023-03-13T06:26:04.456Z,96686.91
2023-03-13T06:28:32.164Z,96699.00
2023-03-13T06:31:03.830Z,96689.38
2023-03-13T06:33:32.046Z,96697.78
2023-03-13T06:36:01.389Z,96689.03
2023-03-13T06:38:29.229Z,96688.03
2023-03-13T06:40:57.089Z,96695.91
2023-03-13T06:43:24.814Z,96692.56
2023-03-13T06:45:52.556Z,96707.97
2023-03-13T06:48:23.157Z,96680.56
2023-03-13T06:50:50.842Z,96684.56
2023-03-13T06:53:19.192Z,96682.47
2023-03-13T06:55:47.020Z,96677.94
2023-03-13T06:58:30.670Z,96662.56
2023-03-13T07:00:59.767Z,96658.94
2023-03-13T07:03:28.980Z,96663.66
2023-03-13T07:05:57.406Z,96655.94
2023-03-13T07:08:25.726Z,96649.97
2023-03-13T07:10:53.526Z,96660.00
2023-03-13T07:13:22.301Z,96661.81
2023-03-13T07:15:50.086Z,96652.66
2023-03-13T07:18:17.839Z,96643.81
2023-03-13T07:20:52.195Z,96639.84
2023-03-13T07:23:19.901Z,96642.44
2023-03-13T07:29:53.494Z,96617.41
2023-03-13T07:32:21.141Z,96603.03
2023-03-13T07:34:48.864Z,96594.19
2023-03-13T07:37:17.898Z,96595.63
2023-03-13T07:39:45.594Z,96616.81
2023-03-13T07:42:13.591Z,96609.53
2023-03-13T07:44:42.275Z,96631.22
2023-03-13T07:47:10.360Z,96622.31
2023-03-13T07:49:42.178Z,96645.94
2023-03-13T07:52:10.386Z,96667.59
2023-03-13T07:54:39.533Z,96670.78
2023-03-13T07:57:07.323Z,96684.53
2023-03-13T07:59:35.047Z,96689.81
2023-03-13T08:02:03.026Z,96694.47
2023-03-13T08:04:30.820Z,96695.69
2023-03-13T08:06:58.732Z,96691.09
2023-03-13T08:09:26.557Z,96696.16
2023-03-13T08:11:55.595Z,96704.06
2023-03-13T08:14:23.324Z,96691.91
2023-03-13T08:16:51.066Z,96702.44
2023-03-13T08:19:18.784Z,96703.22
2023-03-13T08:21:46.501Z,96705.00
2023-03-13T08:24:14.212Z,96711.72
2023-03-13T08:26:42.544Z,96708.66
2023-03-13T08:29:12.335Z,96708.50
2023-03-13T08:31:40.556Z,96697.34
2023-03-13T08:34:08.290Z,96696.56
2023-03-13T08:36:36.650Z,96714.56
2023-03-13T08:39:05.870Z,96708.97
2023-03-13T08:41:34.908Z,96721.31
2023-03-13T08:44:02.693Z,96734.09
2023-03-13T08:46:32.137Z,96729.63
2023-03-13T08:48:59.865Z,96740.34
2023-03-13T08:51:28.327Z,96743.09
2023-03-13T08:53:56.787Z,96745.97
2023-03-13T08:56:25.315Z,96730.25
2023-03-13T08:58:53.431Z,96734.66
2023-03-13T09:01:21.550Z,96752.69
2023-03-13T09:03:50.695Z,96749.84
2023-03-13T09:06:18.555Z,96746.03
2023-03-13T09:08:46.276Z,96742.19
2023-03-13T09:11:14.933Z,96763.50
2023-03-13T09:13:43.530Z,96758.41
2023-03-13T09:16:12.020Z,96758.88
2023-03-13T09:18:40.053Z,96754.22
2023-03-13T09:21:09.927Z,96764.19
2023-03-13T09:23:37.662Z,96763.69
2023-03-13T09:26:05.656Z,96753.16
2023-03-13T09:28:33.467Z,96772.22
2023-03-13T09:31:07.618Z,96775.28
2023-03-13T09:33:35.366Z,96780.31
2023-03-13T09:36:03.106Z,96762.09
2023-03-13T09:38:32.270Z,96767.41
2023-03-13T09:41:06.439Z,96769.03
2023-03-13T09:43:40.839Z,96759.47
2023-03-13T09:46:12.688Z,96761.69
2023-03-13T09:48:41.783Z,96753.19
2023-03-13T09:51:12.359Z,96746.28
2023-03-13T09:53:43.113Z,96748.34
2023-03-13T09:56:15.559Z,96749.38
2023-03-13T09:58:50.551Z,96745.31
2023-03-13T10:01:19.265Z,96747.50
2023-03-13T10:03:53.106Z,96750.38
2023-03-13T10:06:21.259Z,96744.28
2023-03-13T10:08:50.315Z,96748.16
2023-03-13T10:11:25.311Z,96755.25
2023-03-13T10:13:54.522Z,96751.63
2023-03-13T10:16:23.899Z,96746.16
2023-03-13T10:18:54.499Z,96730.16
2023-03-13T10:21:23.122Z,96711.09
2023-03-13T10:23:54.614Z,96713.94
2023-03-13T10:26:24.288Z,96707.03
2023-03-13T10:28:52.289Z,96721.22
2023-03-13T10:31:23.296Z,96722.84
2023-03-13T10:33:51.180Z,96707.88
2023-03-13T10:36:19.442Z,96717.81
2023-03-13T10:38:49.616Z,96716.59
2023-03-13T10:41:25.283Z,96719.63
2023-03-13T10:43:53.586Z,96717.19
2023-03-13T10:46:26.306Z,96702.19
2023-03-13T10:48:55.459Z,96718.41
2023-03-13T10:51:23.533Z,96716.38
2023-03-13T10:53:52.009Z,96733.81
2023-03-13T10:56:25.655Z,96730.16
2023-03-13T10:58:53.847Z,96727.34
2023-03-13T11:01:23.421Z,96738.28
2023-03-13T11:03:52.038Z,96728.53
2023-03-13T11:06:37.750Z,96737.28
2023-03-13T11:09:09.405Z,96734.00
2023-03-13T11:11:48.939Z,96749.63
2023-03-13T11:14:18.474Z,96744.94
2023-03-13T11:16:49.412Z,96740.28
2023-03-13T11:19:31.576Z,96742.50
2023-03-13T11:22:06.413Z,96753.66
2023-03-13T11:24:37.055Z,96761.97
2023-03-13T11:27:09.695Z,96763.00
2023-03-13T11:29:41.422Z,96752.44
2023-03-13T11:32:15.861Z,96745.97
2023-03-13T11:34:46.256Z,96745.75
2023-03-13T11:37:14.644Z,96747.59
2023-03-13T11:39:52.197Z,96733.81
2023-03-13T11:42:41.373Z,96746.59
2023-03-13T11:45:11.245Z,96733.00
2023-03-13T11:47:50.213Z,96717.38
2023-03-13T11:50:24.435Z,96705.03
2023-03-13T11:53:10.769Z,96711.28
2023-03-13T11:55:47.461Z,96699.69
2023-03-13T11:58:31.136Z,96689.66
2023-03-13T12:01:01.173Z,96678.03
2023-03-13T12:03:34.312Z,96653.19
2023-03-13T12:06:02.897Z,96624.81
2023-03-13T12:08:31.799Z,96622.00
2023-03-13T12:11:05.983Z,96613.66
2023-03-13T12:13:36.925Z,96594.53
2023-03-13T12:16:07.992Z,96585.03
2023-03-13T12:18:36.810Z,96583.78
2023-03-13T12:21:06.636Z,96569.16
2023-03-13T12:23:43.134Z,96573.94
2023-03-13T12:26:13.426Z,96566.38
2023-03-13T12:28:44.059Z,96551.66
2023-03-13T12:31:20.010Z,96529.69
2023-03-13T12:33:49.650Z,96536.13
2023-03-13T12:36:19.985Z,96520.50
2023-03-13T12:38:50.459Z,96515.28
2023-03-13T12:41:24.684Z,96499.22
2023-03-13T12:44:07.689Z,96493.56
2023-03-13T12:46:46.987Z,96476.66
2023-03-13T12:49:53.703Z,96460.22
2023-03-13T12:52:45.524Z,96447.38
2023-03-13T12:55:30.870Z,96420.22
2023-03-13T12:58:37.574Z,96391.47
2023-03-13T13:01:07.508Z,96361.59
2023-03-13T13:03:36.482Z,96324.41
2023-03-13T13:06:09.552Z,96317.19
2023-03-13T13:08:38.232Z,96305.56
2023-03-13T13:11:24.478Z,96295.41
2023-03-13T13:13:52.013Z,96273.84
2023-03-13T13:16:21.243Z,96257.88
2023-03-13T13:18:48.846Z,96243.06
2023-03-13T13:21:26.510Z,96239.22
2023-03-13T13:23:56.569Z,96239.44
2023-03-13T13:26:48.344Z,96235.19
2023-03-13T13:29:34.385Z,96245.75
2023-03-13T13:32:04.150Z,96252.66
2023-03-13T13:34:54.909Z,96252.19
2023-03-13T13:37:26.015Z,96260.72
2023-03-13T13:39:53.731Z,96256.22
2023-03-13T13:42:43.670Z,96244.59
2023-03-13T13:45:30.404Z,96249.06
2023-03-13T13:48:24.308Z,96259.19
2023-03-13T13:51:11.187Z,96252.84
2023-03-13T13:53:43.420Z,96260.66
2023-03-13T13:56:25.847Z,96270.44
2023-03-13T13:58:53.411Z,96244.00
2023-03-13T14:01:21.001Z,96230.78
2023-03-13T14:03:49.885Z,96218.47
2023-03-13T14:06:18.326Z,96225.28
2023-03-13T14:08:45.992Z,96220.22
2023-03-13T14:11:20.158Z,96220.66
2023-03-13T14:13:47.729Z,96217.69
2023-03-13T14:16:24.235Z,96227.78
2023-03-13T14:18:53.601Z,96230.34
2023-03-13T14:21:22.409Z,96224.91
2023-03-13T14:23:50.012Z,96225.81
2023-03-13T14:26:18.673Z,96225.69
2023-03-13T14:28:46.778Z,96223.88
2023-03-13T14:31:24.024Z,96223.66
2023-03-13T14:33:53.040Z,96216.28
2023-03-13T14:36:20.621Z,96209.47
2023-03-13T14:38:54.916Z,96223.63
2023-03-13T14:41:28.327Z,96211.22
2023-03-13T14:43:55.994Z,96224.09
2023-03-13T14:46:26.414Z,96199.72
2023-03-13T14:48:56.658Z,96195.56
2023-03-13T14:51:24.903Z,96179.69
2023-03-13T14:53:56.552Z,96173.13
2023-03-13T14:56:31.281Z,96181.19
2023-03-13T14:59:07.140Z,96171.41
2023-03-13T15:01:34.662Z,96164.53
2023-03-13T15:04:03.649Z,96162.91
2023-03-13T15:06:31.181Z,96155.88
2023-03-13T15:09:15.539Z,96140.75
2023-03-13T15:11:43.157Z,96147.50
2023-03-13T15:14:29.302Z,96124.25
2023-03-13T15:16:56.810Z,96133.94
2023-03-13T15:19:25.710Z,96138.75
2023-03-13T15:21:53.265Z,96122.44
2023-03-13T15:24:20.868Z,96117.22
2023-03-13T15:26:49.297Z,96090.84
2023-03-13T15:29:18.326Z,96077.97
2023-03-13T15:31:45.982Z,96078.31
2023-03-13T15:34:14.023Z,96063.25
2023-03-13T15:36:43.094Z,96043.47
2023-03-13T15:39:12.056Z,96030.44
2023-03-13T15:41:39.644Z,96017.41
2023-03-13T15:44:07.216Z,96007.94
2023-03-13T15:46:34.763Z,96002.88
2023-03-13T15:49:02.444Z,95996.16
2023-03-13T15:51:30.799Z,95979.81
2023-03-13T15:53:59.782Z,95984.25
2023-03-13T15:56:27.276Z,95978.00
2023-03-13T15:58:54.813Z,95968.53
2023-03-13T16:01:23.110Z,95972.13
2023-03-13T16:03:50.769Z,95962.34
2023-03-13T16:06:19.000Z,95953.97
2023-03-13T16:08:46.555Z,95956.31
2023-03-13T16:11:15.766Z,95943.22
2023-03-13T16:13:43.388Z,95941.69
2023-03-13T16:16:14.322Z,95944.41
2023-03-13T16:18:41.897Z,95943.44
2023-03-13T16:21:09.646Z,95931.66
2023-03-13T16:23:37.162Z,95915.72
2023-03-13T16:26:04.841Z,95905.75
2023-03-13T16:28:33.729Z,95908.50
2023-03-13T16:31:01.361Z,95900.94
2023-03-13T16:33:28.933Z,95892.81
2023-03-13T16:35:56.477Z,95888.47
2023-03-13T16:38:25.109Z,95872.94
2023-03-13T16:40:52.617Z,95886.00
2023-03-13T16:43:20.136Z,95867.56
2023-03-13T16:45:49.026Z,95873.28
2023-03-13T16:48:17.716Z,95866.19
2023-03-13T16:50:46.601Z,95869.47
2023-03-13T16:53:14.153Z,95874.00
2023-03-13T16:59:30.405Z,95870.56
2023-03-13T17:01:59.232Z,95867.63
2023-03-13T17:16:10.574Z,95858.81
2023-03-13T17:18:39.471Z,95855.19
2023-03-13T17:24:54.439Z,95858.44
2023-03-13T17:27:21.885Z,95854.63
2023-03-13T17:29:49.378Z,95858.53
2023-03-13T17:32:16.884Z,95857.97
2023-03-13T17:34:45.842Z,95860.78
2023-03-13T17:37:14.948Z,95882.66
2023-03-13T17:39:43.347Z,95892.91
2023-03-13T17:42:11.018Z,95890.03
2023-03-13T17:44:39.262Z,95894.97
2023-03-13T17:47:07.463Z,95871.53
2023-03-13T17:49:34.992Z,95856.03
2023-03-13T17:52:03.843Z,95848.56
2023-03-13T17:54:31.395Z,95834.94
2023-03-13T17:56:58.933Z,95830.50
2023-03-13T17:59:27.457Z,95817.13
2023-03-13T18:01:55.953Z,95816.06
2023-03-13T18:04:23.535Z,95807.97
2023-03-13T18:06:51.182Z,95793.88
2023-03-13T18:09:20.804Z,95783.25
2023-03-13T18:11:48.458Z,95775.66
2023-03-13T18:14:15.966Z,95782.13
2023-03-13T18:16:47.792Z,95788.34
2023-03-13T18:19:16.178Z,95783.81
2023-03-13T18:21:44.443Z,95782.81
2023-03-13T18:24:12.183Z,95781.44
2023-03-13T18:26:41.539Z,95789.78
2023-03-13T18:29:11.710Z,95799.97
2023-03-13T18:31:42.008Z,95808.22
2023-03-13T18:34:10.408Z,95824.53
2023-03-13T18:36:38.766Z,95837.88
2023-03-13T18:39:07.326Z,95865.56
2023-03-13T18:41:36.650Z,96091.72
2023-03-13T18:44:07.012Z,96109.72
2023-03-13T18:46:35.021Z,96156.22
2023-03-13T18:49:04.026Z,96195.63
2023-03-13T18:51:31.901Z,96227.31
2023-03-13T18:53:59.813Z,96249.97
2023-03-13T18:56:28.710Z,96267.16
2023-03-13T18:58:56.491Z,96284.78
2023-03-13T19:01:25.919Z,96301.16
2023-03-13T19:03:53.647Z,96305.22
2023-03-13T19:06:22.349Z,96317.72
2023-03-13T19:08:50.474Z,96332.69
2023-03-13T19:11:18.655Z,96346.03
2023-03-13T19:13:47.589Z,96353.28
2023-03-13T19:16:16.351Z,96359.75
2023-03-13T19:18:46.661Z,96370.28
2023-03-13T19:21:16.377Z,96388.69
2023-03-13T19:23:46.410Z,96408.78
2023-03-13T19:26:15.029Z,96408.34
2023-03-13T19:28:42.585Z,96411.75
2023-03-13T19:31:10.136Z,96416.25
2023-03-13T19:33:40.644Z,96434.22
2023-03-13T19:36:13.917Z,96429.78
2023-03-13T19:38:41.658Z,96436.88
2023-03-13T19:41:09.471Z,96437.69
2023-03-13T19:43:41.141Z,96453.47
2023-03-13T19:46:21.143Z,96454.75
2023-03-13T19:48:48.989Z,96463.44
2023-03-13T19:51:20.021Z,96461.84
2023-03-13T19:53:50.426Z,96468.31
2023-03-13T19:56:21.220Z,96466.31
2023-03-13T19:58:50.743Z,96466.31
2023-03-13T20:01:18.580Z,96475.63
2023-03-13T20:03:46.650Z,96471.38
2023-03-13T20:06:20.385Z,96468.09
2023-03-13T20:08:48.196Z,96474.00
2023-03-13T20:11:16.441Z,96471.97
2023-03-13T20:13:44.324Z,96473.78
2023-03-13T20:16:12.520Z,96467.69
2023-03-13T20:18:40.594Z,96475.41
2023-03-13T20:21:08.457Z,96477.75
2023-03-13T20:23:37.820Z,96458.47
2023-03-13T20:26:10.228Z,96469.16
2023-03-13T20:28:41.035Z,96475.88
2023-03-13T20:31:12.393Z,96490.03
2023-03-13T20:33:40.365Z,96482.53
2023-03-13T20:36:12.358Z,96483.72
2023-03-13T20:38:44.816Z,96481.34
2023-03-13T20:41:12.728Z,96494.84
2023-03-13T20:43:45.455Z,96500.53
2023-03-13T20:46:13.281Z,96501.34
2023-03-13T20:48:42.355Z,96512.69
2023-03-13T20:51:10.479Z,96525.66
2023-03-13T20:53:41.202Z,96536.59
2023-03-13T20:56:11.566Z,96557.34
2023-03-13T20:58:39.528Z,96581.06
2023-03-13T21:01:07.604Z,96590.97
2023-03-13T21:03:36.062Z,96582.47
2023-03-13T21:06:09.942Z,96607.22
2023-03-13T21:08:40.676Z,96578.81
2023-03-13T21:11:14.012Z,96584.09
2023-03-13T21:13:41.780Z,96596.28
2023-03-13T21:16:09.658Z,96587.53
2023-03-13T21:18:37.579Z,96579.28
2023-03-13T21:21:05.861Z,96578.25
2023-03-13T21:23:33.762Z,96580.91
2023-03-13T21:26:01.481Z,96574.84
2023-03-13T21:28:30.603Z,96585.81
2023-03-13T21:30:58.549Z,96585.38
2023-03-13T21:33:28.504Z,96584.16
2023-03-13T21:35:56.451Z,96597.53
2023-03-13T21:38:25.814Z,96591.06
2023-03-13T21:40:53.629Z,96589.03
2023-03-13T21:43:28.313Z,96592.69
2023-03-13T21:46:05.622Z,96604.66
2023-03-13T21:48:33.424Z,96589.03
2023-03-13T21:51:01.371Z,96587.41
2023-03-13T21:53:36.637Z,96602.03
2023-03-13T21:56:10.557Z,96605.22
2023-03-13T21:58:38.477Z,96608.25
2023-03-13T22:01:08.145Z,96628.72
2023-03-13T22:03:36.918Z,96629.56
2023-03-13T22:06:05.067Z,96633.97
2023-03-13T22:08:32.761Z,96630.13
2023-03-13T22:11:00.606Z,96629.63
2023-03-13T22:13:28.379Z,96643.28
2023-03-13T22:15:56.137Z,96652.78
2023-03-13T22:18:25.271Z,96653.41
2023-03-13T22:20:53.116Z,96647.88
2023-03-13T22:23:20.833Z,96644.81
2023-03-13T22:25:48.692Z,96643.22
2023-03-13T22:28:16.501Z,96647.88
2023-03-13T22:30:44.736Z,96637.19
2023-03-13T22:33:12.462Z,96646.69
2023-03-13T22:35:42.203Z,96636.78
2023-03-13T22:38:10.167Z,96629.72
2023-03-13T22:40:37.929Z,96626.06
2023-03-13T22:43:05.660Z,96627.28
2023-03-13T22:45:34.092Z,96632.78
2023-03-13T22:48:06.111Z,96628.94
2023-03-13T22:50:33.915Z,96622.22
2023-03-13T22:53:02.998Z,96633.38
2023-03-13T22:55:30.719Z,96620.22
2023-03-13T22:57:58.497Z,96623.63
2023-03-13T23:00:26.173Z,96613.72
2023-03-13T23:02:54.846Z,96599.91
2023-03-13T23:05:22.639Z,96573.59
2023-03-13T23:07:50.918Z,96558.59
2023-03-13T23:10:20.013Z,96470.75
2023-03-13T23:12:47.738Z,96403.34
2023-03-13T23:15:15.577Z,96405.59
2023-03-13T23:17:43.271Z,96416.50
2023-03-13T23:20:13.217Z,96414.47
2023-03-13T23:22:41.566Z,96410.44
2023-03-13T23:25:09.811Z,96429.06
2023-03-13T23:27:38.837Z,96420.16
2023-03-13T23:30:07.752Z,96419.75
2023-03-13T23:32:36.672Z,96424.22
2023-03-13T23:35:04.788Z,96420.56
2023-03-13T23:37:33.268Z,96425.41
2023-03-13T23:40:01.334Z,96427.44
2023-03-13T23:42:29.080Z,96435.53
2023-03-13T23:44:58.140Z,96432.47
2023-03-13T23:47:25.840Z,96429.47
2023-03-13T23:49:53.550Z,96435.53
2023-03-13T23:52:21.237Z,96437.97
2023-03-13T23:54:48.983Z,96429.06
2023-03-13T23:57:16.679Z,96432.50
2023-03-13T23:59:44.575Z,96423.59
